createdAt,value
2022-10-26T00:00:10.435Z,2.70
2022-10-26T00:02:40.809Z,2.83
2022-10-26T00:05:08.374Z,3.80
2022-10-26T00:07:35.606Z,3.10
2022-10-26T00:10:02.704Z,3.23
2022-10-26T00:12:31.183Z,3.00
2022-10-26T00:14:58.334Z,2.70
2022-10-26T00:17:25.538Z,2.73
2022-10-26T00:19:52.618Z,2.77
2022-10-26T00:22:19.721Z,1.93
2022-10-26T00:24:46.800Z,3.10
2022-10-26T00:27:13.883Z,2.87
2022-10-26T00:29:42.322Z,2.50
2022-10-26T00:32:09.415Z,2.50
2022-10-26T00:34:36.546Z,2.30
2022-10-26T00:37:03.622Z,2.37
2022-10-26T00:39:30.715Z,2.63
2022-10-26T00:41:57.812Z,3.13
2022-10-26T00:44:43.678Z,2.60
2022-10-26T00:47:12.608Z,2.60
2022-10-26T00:49:39.706Z,2.67
2022-10-26T00:52:07.675Z,2.40
2022-10-26T00:54:34.865Z,2.87
2022-10-26T00:57:01.997Z,2.27
2022-10-26T00:59:29.167Z,2.57
2022-10-26T01:01:56.284Z,2.17
2022-10-26T01:04:24.703Z,1.90
2022-10-26T01:06:52.474Z,2.00
2022-10-26T01:09:19.757Z,1.93
2022-10-26T01:11:46.853Z,2.33
2022-10-26T01:14:14.701Z,2.00
2022-10-26T01:16:48.873Z,2.43
2022-10-26T01:19:36.173Z,2.17
2022-10-26T01:22:05.329Z,1.90
2022-10-26T01:24:45.454Z,1.80
2022-10-26T01:27:24.286Z,2.63
2022-10-26T01:30:02.264Z,2.00
2022-10-26T01:32:33.428Z,2.40
2022-10-26T01:35:04.686Z,2.00
2022-10-26T01:37:34.070Z,2.03
2022-10-26T01:40:03.982Z,2.57
2022-10-26T01:42:31.679Z,2.40
2022-10-26T01:45:01.692Z,1.87
2022-10-26T01:47:29.972Z,1.80
2022-10-26T01:49:59.648Z,1.70
2022-10-26T01:52:26.823Z,2.10
2022-10-26T01:55:00.395Z,2.00
2022-10-26T01:57:27.503Z,1.83
2022-10-26T02:00:05.343Z,2.20
2022-10-26T02:02:41.279Z,1.93
2022-10-26T02:05:21.114Z,2.07
2022-10-26T02:07:52.083Z,1.90
2022-10-26T02:10:23.813Z,2.20
2022-10-26T02:12:53.662Z,2.00
2022-10-26T02:15:22.675Z,2.40
2022-10-26T02:17:51.977Z,1.90
2022-10-26T02:20:22.662Z,2.20
2022-10-26T02:22:50.962Z,1.70
2022-10-26T02:25:18.754Z,2.30
2022-10-26T02:27:48.440Z,2.23
2022-10-26T02:30:15.782Z,3.10
2022-10-26T02:32:45.666Z,2.07
2022-10-26T02:35:13.471Z,1.90
2022-10-26T02:37:42.775Z,1.90
2022-10-26T02:40:11.925Z,2.10
2022-10-26T02:42:40.745Z,2.17
2022-10-26T02:45:10.733Z,1.70
2022-10-26T02:47:37.830Z,2.07
2022-10-26T02:50:05.126Z,2.00
2022-10-26T02:52:37.350Z,2.07
2022-10-26T02:55:08.082Z,1.87
2022-10-26T02:57:37.287Z,2.30
2022-10-26T03:00:04.776Z,1.53
2022-10-26T03:02:31.870Z,1.80
2022-10-26T03:05:06.948Z,2.23
2022-10-26T03:07:34.053Z,2.10
2022-10-26T03:10:01.129Z,1.70
2022-10-26T03:12:29.571Z,1.83
2022-10-26T03:14:56.637Z,1.70
2022-10-26T03:17:23.722Z,2.10
2022-10-26T03:19:50.838Z,2.03
2022-10-26T03:22:17.948Z,1.57
2022-10-26T03:24:45.048Z,1.70
2022-10-26T03:27:12.126Z,2.50
2022-10-26T03:29:40.731Z,1.80
2022-10-26T03:32:07.829Z,1.90
2022-10-26T03:34:34.940Z,1.77
2022-10-26T03:37:02.012Z,1.83
2022-10-26T03:39:29.089Z,2.20
2022-10-26T03:41:56.247Z,1.60
2022-10-26T03:44:23.474Z,2.10
2022-10-26T03:46:51.934Z,1.80
2022-10-26T03:49:19.044Z,2.20
2022-10-26T03:51:46.106Z,2.67
2022-10-26T03:54:13.208Z,2.00
2022-10-26T03:56:40.300Z,2.43
2022-10-26T03:59:07.407Z,2.13
2022-10-26T04:01:34.592Z,1.87
2022-10-26T04:04:03.137Z,1.90
2022-10-26T04:06:30.372Z,2.83
2022-10-26T04:08:57.459Z,2.13
2022-10-26T04:11:24.580Z,2.10
2022-10-26T04:13:51.659Z,1.83
2022-10-26T04:16:18.773Z,3.10
2022-10-26T04:18:45.858Z,3.60
2022-10-26T04:21:14.307Z,2.60
2022-10-26T04:23:41.377Z,2.57
2022-10-26T04:26:08.459Z,2.10
2022-10-26T04:28:35.584Z,2.13
2022-10-26T04:31:02.657Z,2.23
2022-10-26T04:33:29.750Z,2.13
2022-10-26T04:35:59.335Z,2.03
2022-10-26T04:38:27.854Z,2.03
2022-10-26T04:40:54.961Z,2.40
2022-10-26T04:43:22.060Z,2.00
2022-10-26T04:45:49.129Z,2.30
2022-10-26T04:48:16.255Z,2.50
2022-10-26T04:50:43.374Z,2.57
2022-10-26T04:53:10.698Z,2.07
2022-10-26T04:55:39.188Z,2.37
2022-10-26T04:58:06.623Z,1.90
2022-10-26T05:00:34.401Z,2.07
2022-10-26T05:03:01.777Z,2.13
2022-10-26T05:05:28.948Z,2.57
2022-10-26T05:07:56.366Z,2.10
2022-10-26T05:10:23.470Z,1.90
2022-10-26T05:12:53.115Z,1.93
2022-10-26T05:15:20.310Z,2.47
2022-10-26T05:17:47.731Z,2.90
2022-10-26T05:20:15.230Z,2.27
2022-10-26T05:22:42.319Z,2.47
2022-10-26T05:25:09.609Z,2.80
2022-10-26T05:27:36.693Z,2.70
2022-10-26T05:32:37.402Z,3.67
2022-10-26T05:35:04.767Z,2.20
2022-10-26T05:37:31.890Z,2.10
2022-10-26T05:39:59.039Z,2.17
2022-10-26T05:42:26.161Z,2.67
2022-10-26T05:44:53.258Z,2.43
2022-10-26T05:47:21.679Z,1.77
2022-10-26T05:49:48.763Z,2.00
2022-10-26T05:52:15.825Z,2.03
2022-10-26T05:54:42.922Z,2.30
2022-10-26T05:57:11.784Z,2.13
2022-10-26T05:59:39.202Z,1.80
2022-10-26T06:02:10.090Z,2.20
2022-10-26T06:04:39.782Z,2.20
2022-10-26T06:07:11.718Z,1.97
2022-10-26T06:09:39.076Z,2.30
2022-10-26T06:12:06.618Z,2.10
2022-10-26T06:14:34.161Z,1.83
2022-10-26T06:17:07.361Z,1.97
2022-10-26T06:19:42.731Z,2.63
2022-10-26T06:22:16.841Z,1.93
2022-10-26T06:24:48.276Z,1.80
2022-10-26T06:27:19.597Z,2.53
2022-10-26T06:29:51.229Z,2.20
2022-10-26T06:32:18.339Z,2.10
2022-10-26T06:34:49.478Z,2.37
2022-10-26T06:37:17.081Z,2.10
2022-10-26T06:39:47.898Z,2.10
2022-10-26T06:42:17.478Z,2.10
2022-10-26T06:44:44.994Z,2.40
2022-10-26T06:47:18.607Z,3.03
2022-10-26T06:49:56.385Z,2.17
2022-10-26T06:52:28.667Z,2.53
2022-10-26T06:54:56.061Z,2.20
2022-10-26T06:57:23.972Z,2.47
2022-10-26T06:59:52.040Z,2.87
2022-10-26T07:02:19.293Z,2.43
2022-10-26T07:04:46.773Z,2.70
2022-10-26T07:07:16.277Z,2.10
2022-10-26T07:09:43.433Z,2.30
2022-10-26T07:12:10.578Z,2.03
2022-10-26T07:14:37.711Z,2.47
2022-10-26T07:17:04.830Z,2.33
2022-10-26T07:19:31.958Z,2.23
2022-10-26T07:21:59.357Z,2.53
2022-10-26T07:24:27.831Z,3.00
2022-10-26T07:26:55.430Z,2.13
2022-10-26T07:29:22.764Z,2.40
2022-10-26T07:31:49.879Z,2.80
2022-10-26T07:34:17.187Z,2.47
2022-10-26T07:36:44.304Z,2.20
2022-10-26T07:39:11.450Z,2.17
2022-10-26T07:41:39.886Z,2.50
2022-10-26T07:44:06.980Z,2.47
2022-10-26T07:46:34.089Z,2.03
2022-10-26T07:49:01.199Z,2.80
2022-10-26T07:51:28.460Z,2.73
2022-10-26T07:53:55.569Z,2.30
2022-10-26T07:56:22.634Z,2.33
2022-10-26T07:58:52.544Z,2.30
2022-10-26T08:01:19.935Z,2.67
2022-10-26T08:03:47.126Z,2.37
2022-10-26T08:06:14.528Z,2.30
2022-10-26T08:08:44.964Z,2.43
2022-10-26T08:11:14.536Z,2.10
2022-10-26T08:13:41.724Z,2.00
2022-10-26T08:16:10.464Z,2.90
2022-10-26T08:18:37.552Z,2.17
2022-10-26T08:21:10.992Z,2.60
2022-10-26T08:23:39.715Z,2.33
2022-10-26T08:26:07.245Z,2.40
2022-10-26T08:28:34.652Z,2.43
2022-10-26T08:31:01.740Z,2.37
2022-10-26T08:33:30.472Z,2.13
2022-10-26T08:35:57.640Z,2.30
2022-10-26T08:38:24.773Z,2.90
2022-10-26T08:40:52.512Z,2.60
2022-10-26T08:43:21.620Z,2.47
2022-10-26T08:45:51.236Z,2.13
2022-10-26T08:48:20.546Z,2.37
2022-10-26T08:50:51.712Z,2.70
2022-10-26T08:53:21.760Z,2.03
2022-10-26T08:55:51.198Z,2.10
2022-10-26T08:58:21.113Z,2.80
2022-10-26T09:00:49.230Z,2.67
2022-10-26T09:03:16.894Z,2.20
2022-10-26T09:05:49.173Z,2.53
2022-10-26T09:08:24.066Z,2.50
2022-10-26T09:10:54.537Z,3.10
2022-10-26T09:13:25.747Z,2.63
2022-10-26T09:15:57.511Z,2.20
2022-10-26T09:18:32.445Z,2.37
2022-10-26T09:21:07.816Z,2.50
2022-10-26T09:23:48.648Z,2.57
2022-10-26T09:26:20.121Z,2.67
2022-10-26T09:28:49.173Z,2.33
2022-10-26T09:31:17.592Z,2.50
2022-10-26T09:33:44.688Z,3.00
2022-10-26T09:36:16.816Z,2.90
2022-10-26T09:38:48.011Z,2.90
2022-10-26T09:41:20.083Z,3.10
2022-10-26T09:43:49.911Z,2.60
2022-10-26T09:46:20.987Z,2.73
2022-10-26T09:48:50.123Z,3.07
2022-10-26T09:51:17.373Z,1.60
2022-10-26T09:53:46.133Z,2.47
2022-10-26T09:56:14.493Z,3.40
2022-10-26T09:58:43.249Z,2.70
2022-10-26T10:01:21.131Z,2.17
2022-10-26T10:03:48.365Z,1.80
2022-10-26T10:06:16.808Z,2.43
2022-10-26T10:08:44.292Z,2.73
2022-10-26T10:11:13.691Z,2.93
2022-10-26T10:13:41.751Z,2.70
2022-10-26T10:16:11.719Z,2.20
2022-10-26T10:18:40.004Z,2.77
2022-10-26T10:21:08.154Z,2.27
2022-10-26T10:23:36.340Z,3.07
2022-10-26T10:26:07.957Z,2.27
2022-10-26T10:28:36.413Z,2.63
2022-10-26T10:31:05.364Z,2.70
2022-10-26T10:33:33.390Z,2.40
2022-10-26T10:36:01.039Z,3.07
2022-10-26T10:38:28.174Z,2.90
2022-10-26T10:40:56.535Z,2.30
2022-10-26T10:43:23.668Z,3.10
2022-10-26T10:45:55.899Z,3.00
2022-10-26T10:48:27.743Z,3.00
2022-10-26T10:50:56.161Z,2.43
2022-10-26T10:53:24.643Z,2.27
2022-10-26T10:56:15.813Z,2.93
2022-10-26T10:58:47.616Z,2.63
2022-10-26T11:01:18.304Z,2.83
2022-10-26T11:03:51.230Z,2.80
2022-10-26T11:06:19.538Z,2.90
2022-10-26T11:08:49.416Z,2.83
2022-10-26T11:11:19.434Z,2.50
2022-10-26T11:13:49.096Z,2.30
2022-10-26T11:16:21.509Z,2.90
2022-10-26T11:18:50.963Z,2.80
2022-10-26T11:21:24.155Z,2.90
2022-10-26T11:23:53.506Z,2.30
2022-10-26T11:26:22.800Z,2.40
2022-10-26T11:28:52.484Z,2.10
2022-10-26T11:31:22.433Z,2.20
2022-10-26T11:33:54.152Z,2.50
2022-10-26T11:36:23.761Z,1.93
2022-10-26T11:38:57.238Z,1.97
2022-10-26T11:41:26.379Z,1.77
2022-10-26T11:43:55.924Z,1.50
2022-10-26T11:46:27.818Z,1.60
2022-10-26T11:48:56.210Z,1.63
2022-10-26T11:51:33.733Z,1.63
2022-10-26T11:54:04.241Z,1.50
2022-10-26T11:56:32.846Z,1.83
2022-10-26T11:59:00.307Z,1.77
2022-10-26T12:01:29.454Z,1.37
2022-10-26T12:03:58.278Z,2.03
2022-10-26T12:06:26.850Z,1.47
2022-10-26T12:08:57.726Z,1.40
2022-10-26T12:11:31.909Z,1.83
2022-10-26T12:14:00.649Z,1.60
2022-10-26T12:16:34.673Z,2.07
2022-10-26T12:19:03.286Z,1.57
2022-10-26T12:21:31.698Z,1.40
2022-10-26T12:23:59.759Z,2.60
2022-10-26T12:26:47.538Z,1.50
2022-10-26T12:29:29.541Z,1.33
2022-10-26T12:31:58.181Z,1.40
2022-10-26T12:34:45.322Z,1.43
2022-10-26T12:37:23.153Z,1.80
2022-10-26T12:39:50.284Z,1.80
2022-10-26T12:42:30.098Z,1.70
2022-10-26T12:45:14.642Z,1.53
2022-10-26T12:48:07.015Z,1.43
2022-10-26T12:50:42.651Z,2.00
2022-10-26T12:53:12.766Z,1.40
2022-10-26T12:55:57.508Z,1.57
2022-10-26T12:58:42.334Z,1.70
2022-10-26T13:01:20.651Z,1.50
2022-10-26T13:03:52.845Z,1.73
2022-10-26T13:06:34.808Z,1.67
2022-10-26T13:11:37.071Z,1.47
2022-10-26T13:14:05.777Z,1.23
2022-10-26T13:16:33.291Z,2.10
2022-10-26T13:19:00.970Z,2.30
2022-10-26T13:21:28.309Z,2.30
2022-10-26T13:23:59.361Z,1.63
2022-10-26T13:26:28.658Z,2.03
2022-10-26T13:28:56.403Z,1.50
2022-10-26T13:31:42.068Z,1.50
2022-10-26T13:36:46.823Z,1.50
2022-10-26T13:39:15.863Z,1.40
2022-10-26T13:41:46.053Z,1.60
2022-10-26T13:44:18.315Z,1.60
2022-10-26T13:46:46.070Z,1.73
2022-10-26T13:49:16.490Z,1.67
2022-10-26T13:51:44.743Z,1.97
2022-10-26T13:54:17.174Z,1.67
2022-10-26T13:56:49.253Z,1.60
2022-10-26T13:59:16.404Z,1.73
2022-10-26T14:01:43.566Z,1.80
2022-10-26T14:04:17.238Z,1.50
2022-10-26T14:06:47.592Z,1.70
2022-10-26T14:09:16.326Z,2.17
2022-10-26T14:11:45.274Z,1.50
2022-10-26T14:14:16.974Z,1.90
2022-10-26T14:16:45.741Z,1.43
2022-10-26T14:19:15.230Z,1.53
2022-10-26T14:21:42.944Z,1.50
2022-10-26T14:24:22.390Z,2.07
2022-10-26T14:26:51.906Z,1.67
2022-10-26T14:29:21.503Z,1.60
2022-10-26T14:31:49.308Z,1.83
2022-10-26T14:34:17.106Z,1.47
2022-10-26T14:36:46.635Z,2.10
2022-10-26T14:39:17.860Z,1.70
2022-10-26T14:41:45.035Z,1.40
2022-10-26T14:44:16.750Z,1.57
2022-10-26T14:46:45.318Z,1.90
2022-10-26T14:49:18.470Z,1.90
2022-10-26T14:51:45.644Z,1.30
2022-10-26T14:54:20.115Z,1.90
2022-10-26T14:56:47.279Z,1.43
2022-10-26T14:59:21.256Z,1.60
2022-10-26T15:01:50.511Z,1.90
2022-10-26T15:04:33.971Z,2.70
2022-10-26T15:07:16.434Z,2.43
2022-10-26T15:09:44.279Z,1.33
2022-10-26T15:12:26.373Z,1.70
2022-10-26T15:14:54.032Z,1.70
2022-10-26T15:17:24.526Z,2.07
2022-10-26T15:19:52.332Z,1.73
2022-10-26T15:22:22.392Z,1.97
2022-10-26T15:24:51.059Z,1.80
2022-10-26T15:27:18.296Z,1.60
2022-10-26T15:29:46.360Z,1.83
2022-10-26T15:32:37.784Z,1.70
2022-10-26T15:35:22.928Z,1.93
2022-10-26T15:37:52.124Z,2.40
2022-10-26T15:40:19.424Z,2.53
2022-10-26T15:42:48.153Z,2.73
2022-10-26T15:45:16.758Z,3.60
2022-10-26T15:47:43.973Z,4.23
2022-10-26T15:50:13.072Z,4.20
2022-10-26T15:52:40.965Z,3.37
2022-10-26T15:55:10.987Z,2.80
2022-10-26T15:57:38.700Z,2.10
2022-10-26T16:00:06.803Z,3.40
2022-10-26T16:02:34.606Z,3.37
2022-10-26T16:05:01.724Z,4.20
2022-10-26T16:07:28.814Z,2.80
2022-10-26T16:09:55.936Z,2.63
2022-10-26T16:12:24.423Z,1.90
2022-10-26T16:15:04.947Z,2.10
2022-10-26T16:17:33.089Z,2.00
2022-10-26T16:20:00.184Z,1.63
2022-10-26T16:22:27.258Z,1.57
2022-10-26T16:24:54.365Z,1.70
2022-10-26T16:27:21.462Z,2.20
2022-10-26T16:29:49.896Z,2.00
2022-10-26T16:32:16.961Z,1.60
2022-10-26T16:34:44.041Z,1.90
2022-10-26T16:37:11.117Z,2.20
2022-10-26T16:39:38.198Z,1.40
2022-10-26T16:42:05.339Z,2.33
2022-10-26T16:44:32.438Z,1.50
2022-10-26T16:47:00.868Z,1.70
2022-10-26T16:49:27.932Z,1.60
2022-10-26T16:51:55.037Z,2.07
2022-10-26T16:54:22.110Z,1.67
2022-10-26T16:56:49.197Z,1.80
2022-10-26T16:59:16.270Z,1.80
2022-10-26T17:01:43.467Z,2.00
2022-10-26T17:04:12.019Z,1.90
2022-10-26T17:06:39.078Z,2.60
2022-10-26T17:09:06.165Z,2.23
2022-10-26T17:11:33.310Z,2.17
2022-10-26T17:14:00.452Z,1.73
2022-10-26T17:16:27.543Z,2.10
2022-10-26T17:18:54.648Z,1.80
2022-10-26T17:21:29.020Z,2.60
2022-10-26T17:23:56.113Z,2.10
2022-10-26T17:26:23.282Z,2.20
2022-10-26T17:28:51.440Z,2.83
2022-10-26T17:31:18.554Z,2.30
2022-10-26T17:33:46.060Z,2.27
2022-10-26T17:36:14.157Z,2.13
2022-10-26T17:38:42.890Z,1.60
2022-10-26T17:41:10.680Z,2.40
2022-10-26T17:43:38.481Z,2.53
2022-10-26T17:46:07.165Z,1.70
2022-10-26T17:48:34.315Z,2.03
2022-10-26T17:51:01.812Z,2.93
2022-10-26T17:53:29.271Z,2.00
2022-10-26T17:56:04.566Z,2.37
2022-10-26T17:58:31.725Z,2.27
2022-10-26T18:01:01.116Z,2.67
2022-10-26T18:03:28.658Z,3.37
2022-10-26T18:05:55.801Z,2.40
2022-10-26T18:08:23.195Z,2.53
2022-10-26T18:10:50.675Z,3.13
2022-10-26T18:13:19.114Z,2.43
2022-10-26T18:15:46.221Z,2.43
2022-10-26T18:18:13.360Z,3.80
2022-10-26T18:20:40.483Z,2.20
2022-10-26T18:23:07.596Z,3.13
2022-10-26T18:25:34.695Z,2.60
2022-10-26T18:28:01.847Z,2.10
2022-10-26T18:30:30.339Z,2.73
2022-10-26T18:32:57.407Z,2.63
2022-10-26T18:35:24.509Z,2.67
2022-10-26T18:37:52.066Z,2.23
2022-10-26T18:40:19.305Z,2.70
2022-10-26T18:42:46.409Z,2.43
2022-10-26T18:45:13.486Z,2.90
2022-10-26T18:47:41.919Z,2.50
2022-10-26T18:50:09.273Z,2.60
2022-10-26T18:52:36.366Z,2.70
2022-10-26T18:55:03.724Z,2.17
2022-10-26T18:57:30.814Z,2.57
2022-10-26T18:59:57.920Z,2.63
2022-10-26T19:02:24.974Z,2.70
2022-10-26T19:04:53.396Z,2.80
2022-10-26T19:07:20.470Z,2.80
2022-10-26T19:09:47.568Z,2.80
2022-10-26T19:12:14.621Z,2.57
2022-10-26T19:14:41.702Z,2.60
2022-10-26T19:17:08.780Z,2.77
2022-10-26T19:19:35.879Z,2.70
2022-10-26T19:22:04.294Z,2.80
2022-10-26T19:24:31.445Z,2.97
2022-10-26T19:26:58.524Z,2.80
2022-10-26T19:29:25.598Z,2.27
2022-10-26T19:31:52.734Z,2.40
2022-10-26T19:34:19.968Z,2.23
2022-10-26T19:36:47.584Z,2.20
2022-10-26T19:39:16.709Z,2.87
2022-10-26T19:41:44.181Z,2.30
2022-10-26T19:44:11.704Z,2.27
2022-10-26T19:46:38.898Z,3.07
2022-10-26T19:49:05.970Z,2.60
2022-10-26T19:51:33.319Z,3.40
2022-10-26T19:54:03.329Z,2.93
2022-10-26T19:56:32.990Z,3.10
2022-10-26T19:59:00.266Z,2.77
2022-10-26T20:01:27.502Z,2.90
2022-10-26T20:03:54.680Z,2.37
2022-10-26T20:06:21.779Z,2.80
2022-10-26T20:08:49.325Z,2.60
2022-10-26T20:11:17.221Z,2.90
2022-10-26T20:13:46.449Z,2.63
2022-10-26T20:16:14.092Z,2.30
2022-10-26T20:18:44.226Z,2.97
2022-10-26T20:21:15.195Z,2.90
2022-10-26T20:23:42.411Z,2.40
2022-10-26T20:26:10.964Z,2.37
2022-10-26T20:28:39.798Z,2.53
2022-10-26T20:31:08.186Z,2.33
2022-10-26T20:33:35.269Z,3.00
2022-10-26T20:36:02.392Z,2.77
2022-10-26T20:38:29.709Z,2.30
2022-10-26T20:40:57.773Z,2.70
2022-10-26T20:43:25.302Z,2.30
2022-10-26T20:45:52.797Z,2.20
2022-10-26T20:48:21.608Z,2.67
2022-10-26T20:50:50.616Z,3.13
2022-10-26T20:53:20.897Z,3.30
2022-10-26T20:55:50.326Z,2.47
2022-10-26T20:58:19.161Z,2.80
2022-10-26T21:00:49.905Z,2.73
2022-10-26T21:03:17.000Z,2.87
2022-10-26T21:05:46.456Z,4.30
2022-10-26T21:08:13.626Z,2.67
2022-10-26T21:10:40.702Z,3.17
2022-10-26T21:13:07.833Z,3.00
2022-10-26T21:15:35.196Z,3.47
2022-10-26T21:18:02.399Z,3.27
2022-10-26T21:20:29.513Z,3.17
2022-10-26T21:22:57.950Z,3.10
2022-10-26T21:25:25.130Z,2.90
2022-10-26T21:27:55.218Z,3.10
2022-10-26T21:30:22.305Z,3.20
2022-10-26T21:32:49.466Z,2.97
2022-10-26T21:35:16.580Z,2.83
2022-10-26T21:37:43.634Z,3.30
2022-10-26T21:40:12.801Z,2.87
2022-10-26T21:42:39.895Z,2.93
2022-10-26T21:45:07.842Z,3.60
2022-10-26T21:47:35.289Z,3.27
2022-10-26T21:50:02.354Z,3.47
2022-10-26T21:52:29.466Z,3.60
2022-10-26T21:54:56.525Z,3.70
2022-10-26T21:57:25.025Z,3.13
2022-10-26T21:59:52.125Z,5.10
2022-10-26T22:02:19.282Z,3.60
2022-10-26T22:04:46.405Z,3.70
2022-10-26T22:07:13.508Z,3.57
2022-10-26T22:09:49.547Z,3.87
2022-10-26T22:12:29.018Z,3.30
2022-10-26T22:14:56.133Z,3.77
2022-10-26T22:17:23.219Z,3.80
2022-10-26T22:19:50.325Z,3.80
2022-10-26T22:22:17.405Z,3.97
2022-10-26T22:24:44.489Z,4.07
2022-10-26T22:27:11.562Z,3.63
2022-10-26T22:29:39.985Z,4.03
2022-10-26T22:32:07.074Z,3.80
2022-10-26T22:34:34.171Z,3.80
2022-10-26T22:37:01.234Z,4.23
2022-10-26T22:39:28.332Z,5.13
2022-10-26T22:41:55.415Z,4.10
2022-10-26T22:44:22.492Z,5.00
2022-10-26T22:46:50.919Z,4.40
2022-10-26T22:49:18.003Z,4.17
2022-10-26T22:51:45.117Z,4.37
2022-10-26T22:54:12.707Z,3.63
2022-10-26T22:56:39.809Z,4.00
2022-10-26T22:59:06.916Z,3.87
2022-10-26T23:01:38.032Z,4.80
2022-10-26T23:04:06.674Z,4.20
2022-10-26T23:06:34.249Z,3.50
2022-10-26T23:09:01.337Z,4.23
2022-10-26T23:11:29.329Z,3.90
2022-10-26T23:13:57.654Z,3.97
2022-10-26T23:16:24.778Z,4.10
2022-10-26T23:18:52.292Z,4.37
2022-10-26T23:21:21.717Z,4.67
2022-10-26T23:23:48.966Z,4.00
2022-10-26T23:26:17.304Z,4.20
2022-10-26T23:28:44.645Z,4.00
2022-10-26T23:31:14.771Z,3.70
2022-10-26T23:33:41.870Z,3.80
2022-10-26T23:36:08.966Z,4.80
2022-10-26T23:38:37.423Z,4.07
2022-10-26T23:41:07.098Z,3.80
2022-10-26T23:43:36.562Z,4.37
2022-10-26T23:46:03.718Z,4.07
2022-10-26T23:48:30.936Z,3.67
2022-10-26T23:50:58.039Z,4.50
2022-10-26T23:53:25.744Z,4.27
2022-10-26T23:55:54.205Z,4.70
2022-10-26T23:58:21.380Z,4.87
